createdAt,value
2019-06-20T00:02:57.281Z,949.1
2019-06-20T00:06:03.542Z,949.1
2019-06-20T00:09:09.698Z,949
2019-06-20T00:12:15.970Z,949
2019-06-20T00:15:22.136Z,949
2019-06-20T00:18:28.420Z,949.1
2019-06-20T00:21:34.598Z,949.1
2019-06-20T00:24:40.886Z,949.2
2019-06-20T00:27:47.103Z,949.1
2019-06-20T00:30:53.233Z,949.1
2019-06-20T00:33:59.436Z,949.1
2019-06-20T00:37:05.602Z,949.1
2019-06-20T00:40:11.768Z,949
2019-06-20T00:43:19.563Z,949
2019-06-20T00:46:25.779Z,949
2019-06-20T00:49:31.999Z,949
2019-06-20T00:52:38.127Z,949
2019-06-20T00:55:44.427Z,949
2019-06-20T00:58:50.651Z,949
2019-06-20T01:01:56.868Z,949
2019-06-20T01:05:03.135Z,949
2019-06-20T01:08:09.401Z,949
2019-06-20T01:11:15.665Z,948.9
2019-06-20T01:14:21.790Z,948.9
2019-06-20T01:17:27.993Z,948.9
2019-06-20T01:20:34.307Z,948.8
2019-06-20T01:23:40.629Z,948.9
2019-06-20T01:26:46.854Z,948.8
2019-06-20T01:29:53.056Z,948.8
2019-06-20T01:32:59.223Z,948.9
2019-06-20T01:36:05.358Z,949
2019-06-20T01:39:11.551Z,949
2019-06-20T01:42:17.829Z,949
2019-06-20T01:45:24.032Z,949
2019-06-20T01:48:30.123Z,949
2019-06-20T01:51:36.312Z,949
2019-06-20T01:54:42.586Z,949
2019-06-20T01:57:48.909Z,948.9
2019-06-20T02:00:55.058Z,948.9
2019-06-20T02:04:01.313Z,948.9
2019-06-20T02:07:07.654Z,949
2019-06-20T02:10:13.770Z,949
2019-06-20T02:13:19.986Z,949
2019-06-20T02:16:26.356Z,949
2019-06-20T02:19:32.487Z,949
2019-06-20T02:22:38.682Z,949.1
2019-06-20T02:25:44.885Z,949.1
2019-06-20T02:28:51.120Z,949.1
2019-06-20T02:31:57.268Z,949.2
2019-06-20T02:35:03.542Z,949.2
2019-06-20T02:38:09.842Z,949.2
2019-06-20T02:41:16.121Z,949.1
2019-06-20T02:44:31.810Z,949.2
2019-06-20T02:47:37.929Z,949.2
2019-06-20T02:50:44.138Z,949.2
2019-06-20T02:53:50.279Z,949.2
2019-06-20T02:56:56.522Z,949.3
2019-06-20T03:00:03.118Z,949.3
2019-06-20T03:03:09.368Z,949.3
2019-06-20T03:06:15.632Z,949.3
2019-06-20T03:09:21.799Z,949.3
2019-06-20T03:12:30.836Z,949.4
2019-06-20T03:15:36.992Z,949.4
2019-06-20T03:18:43.121Z,949.5
2019-06-20T03:21:49.321Z,949.5
2019-06-20T03:24:55.484Z,949.4
2019-06-20T03:28:01.650Z,949.3
2019-06-20T03:31:08.108Z,949.4
2019-06-20T03:34:14.342Z,949.3
2019-06-20T03:37:20.653Z,949.4
2019-06-20T03:40:27.023Z,949.3
2019-06-20T03:43:33.239Z,949.4
2019-06-20T03:46:39.454Z,949.3
2019-06-20T03:49:45.727Z,949.4
2019-06-20T03:52:51.886Z,949.4
2019-06-20T03:55:58.016Z,949.4
2019-06-20T03:59:04.321Z,949.4
2019-06-20T04:02:10.636Z,949.5
2019-06-20T04:05:16.852Z,949.4
2019-06-20T04:08:23.023Z,949.4
2019-06-20T04:11:29.157Z,949.4
2019-06-20T04:14:35.451Z,949.4
2019-06-20T04:17:41.613Z,949.4
2019-06-20T04:20:47.782Z,949.4
2019-06-20T04:23:54.045Z,949.3
2019-06-20T04:27:00.185Z,949.3
2019-06-20T04:30:06.546Z,949.3
2019-06-20T04:33:13.362Z,949.2
2019-06-20T04:36:19.525Z,949.3
2019-06-20T04:39:25.848Z,949.3
2019-06-20T04:42:31.968Z,949.3
2019-06-20T04:45:38.326Z,949.3
2019-06-20T04:48:44.517Z,949.3
2019-06-20T04:51:50.756Z,949.2
2019-06-20T04:54:56.922Z,949.3
2019-06-20T04:58:03.170Z,949.3
2019-06-20T05:01:09.365Z,949.2
2019-06-20T05:04:15.751Z,949.2
2019-06-20T05:07:21.991Z,949.2
2019-06-20T05:10:28.281Z,949.2
2019-06-20T05:13:34.407Z,949.3
2019-06-20T05:16:40.593Z,949.2
2019-06-20T05:19:46.862Z,949.2
2019-06-20T05:22:53.116Z,949.2
2019-06-20T05:26:00.069Z,949.3
2019-06-20T05:29:06.778Z,949.2
2019-06-20T05:32:13.060Z,949.3
2019-06-20T05:35:19.475Z,949.3
2019-06-20T05:38:25.631Z,949.3
2019-06-20T05:41:31.877Z,949.4
2019-06-20T05:44:37.981Z,949.4
2019-06-20T05:47:44.296Z,949.5
2019-06-20T05:50:50.529Z,949.5
2019-06-20T05:53:56.653Z,949.5
2019-06-20T05:57:05.754Z,949.5
2019-06-20T06:00:11.903Z,949.6
2019-06-20T06:03:18.968Z,949.6
2019-06-20T06:06:25.317Z,949.5
2019-06-20T06:09:31.464Z,949.5
2019-06-20T06:12:37.699Z,949.6
2019-06-20T06:15:43.828Z,949.6
2019-06-20T06:18:50.130Z,949.5
2019-06-20T06:21:56.400Z,949.6
2019-06-20T06:25:02.975Z,949.6
2019-06-20T06:28:12.974Z,949.5
2019-06-20T06:31:19.211Z,949.6
2019-06-20T06:34:25.421Z,949.6
2019-06-20T06:37:31.887Z,949.6
2019-06-20T06:40:38.091Z,949.5
2019-06-20T06:43:44.695Z,949.5
2019-06-20T06:47:00.409Z,949.6
2019-06-20T06:50:06.518Z,949.6
2019-06-20T06:53:12.796Z,949.5
2019-06-20T06:56:18.928Z,949.6
2019-06-20T06:59:25.122Z,949.6
2019-06-20T07:02:31.465Z,949.6
2019-06-20T07:05:37.638Z,949.6
2019-06-20T07:08:43.871Z,949.5
2019-06-20T12:30:50.919Z,948.6
2019-06-20T12:31:46.358Z,948.7
2019-06-20T12:34:54.011Z,948.9
2019-06-20T12:38:00.290Z,949.1
2019-06-20T12:41:06.620Z,949.4
2019-06-20T12:44:12.737Z,949.6
2019-06-20T12:47:18.985Z,950.1
2019-06-20T12:50:25.443Z,950.3
2019-06-20T12:53:31.732Z,950.6
2019-06-20T12:56:43.927Z,950.7
2019-06-20T12:59:52.655Z,950.4
2019-06-20T13:02:58.782Z,950.4
2019-06-20T13:06:05.045Z,950.5
2019-06-20T13:09:13.809Z,950.3
2019-06-20T13:12:20.001Z,950.3
2019-06-20T13:15:26.194Z,950.2
2019-06-20T13:18:32.463Z,950.1
2019-06-20T13:21:42.032Z,950
2019-06-20T13:24:51.613Z,949.8
2019-06-20T13:27:57.815Z,949.9
2019-06-20T13:31:04.093Z,949.8
2019-06-20T13:34:10.247Z,949.8
2019-06-20T13:37:16.932Z,949.7
2019-06-20T13:40:23.068Z,949.7
2019-06-20T13:43:29.358Z,949.6
2019-06-20T13:46:35.494Z,949.5
2019-06-20T13:49:43.778Z,949.5
2019-06-20T13:52:52.761Z,949.4
2019-06-20T13:55:59.027Z,949.4
2019-06-20T13:59:05.181Z,949.3
2019-06-20T14:02:15.196Z,949.2
2019-06-20T14:05:21.766Z,949.2
2019-06-20T14:08:27.913Z,949.2
2019-06-20T14:11:34.158Z,949.2
2019-06-20T14:14:45.735Z,949.2
2019-06-20T14:17:56.001Z,949.1
2019-06-20T14:21:02.621Z,949
2019-06-20T14:24:08.788Z,948.9
2019-06-20T14:27:15.006Z,948.8
2019-06-20T14:30:21.172Z,948.9
2019-06-20T14:33:27.334Z,948.7
2019-06-20T14:36:36.988Z,948.8
2019-06-20T14:39:45.427Z,948.8
2019-06-20T14:42:54.240Z,948.8
2019-06-20T14:46:03.041Z,948.8
2019-06-20T14:49:09.327Z,948.8
2019-06-20T14:52:18.360Z,948.8
2019-06-20T14:55:24.496Z,948.9
2019-06-20T14:58:30.923Z,948.9
2019-06-20T15:01:37.265Z,948.8
2019-06-20T15:04:47.829Z,948.9
2019-06-20T15:07:58.444Z,948.9
2019-06-20T15:11:04.666Z,949.1
2019-06-20T15:14:10.969Z,949.1
2019-06-20T15:17:17.122Z,949.1
2019-06-20T15:20:23.368Z,949.2
2019-06-20T15:23:29.568Z,949.1
2019-06-20T15:26:35.827Z,949
2019-06-20T15:29:41.950Z,949.1
2019-06-20T15:33:10.765Z,949.1
2019-06-20T15:36:16.965Z,949
2019-06-20T15:39:23.182Z,949.1
2019-06-20T15:42:29.442Z,949.2
2019-06-20T15:45:35.580Z,949.2
2019-06-20T15:48:41.777Z,949.1
2019-06-20T15:51:47.939Z,949
2019-06-20T15:54:54.313Z,949.1
2019-06-20T15:58:00.469Z,949
2019-06-20T16:01:06.643Z,948.9
2019-06-20T16:04:12.901Z,948.9
2019-06-20T16:07:19.081Z,949
2019-06-20T16:10:25.206Z,949
2019-06-20T16:13:34.167Z,949
2019-06-20T16:16:40.374Z,948.9
2019-06-20T16:19:46.492Z,948.9
2019-06-20T16:22:52.700Z,948.9
2019-06-20T16:25:58.967Z,948.9
2019-06-20T16:29:05.195Z,948.9
2019-06-20T16:32:11.507Z,948.9
2019-06-20T16:35:17.640Z,948.9
2019-06-20T16:38:23.884Z,948.9
2019-06-20T16:41:30.050Z,949.1
2019-06-20T16:44:36.178Z,949.1
2019-06-20T16:47:42.386Z,949.1
2019-06-20T16:50:48.646Z,949.2
2019-06-20T16:53:54.819Z,949.1
2019-06-20T16:57:00.970Z,949
2019-06-20T17:00:07.497Z,949
2019-06-20T17:03:13.796Z,949
2019-06-20T17:06:19.975Z,948.9
2019-06-20T17:09:26.142Z,949
2019-06-20T17:12:32.512Z,949
2019-06-20T17:15:38.637Z,948.9
2019-06-20T17:18:44.938Z,948.9
2019-06-20T17:21:51.101Z,948.9
2019-06-20T17:24:57.428Z,948.9
2019-06-20T17:28:04.213Z,948.9
2019-06-20T17:31:10.415Z,949
2019-06-20T17:34:16.588Z,949
2019-06-20T17:37:22.946Z,949
2019-06-20T17:40:29.088Z,949.1
2019-06-20T17:43:35.275Z,949
2019-06-20T17:46:41.439Z,948.9
2019-06-20T17:49:47.603Z,949
2019-06-20T17:52:53.927Z,949
2019-06-20T17:56:00.147Z,949
2019-06-20T17:59:06.405Z,948.9
2019-06-20T18:02:15.364Z,948.9
2019-06-20T18:05:21.598Z,948.9
2019-06-20T18:08:27.866Z,948.8
2019-06-20T18:11:34.285Z,948.8
2019-06-20T18:14:40.477Z,948.7
2019-06-20T18:17:46.772Z,948.8
2019-06-20T18:20:53.036Z,948.8
2019-06-20T18:23:59.236Z,948.9
2019-06-20T18:27:05.570Z,948.9
2019-06-20T18:30:11.700Z,948.9
2019-06-20T18:33:17.907Z,949
2019-06-20T18:36:24.164Z,949
2019-06-20T18:39:30.300Z,949.1
2019-06-20T18:42:36.491Z,949.2
2019-06-20T18:45:42.864Z,949.3
2019-06-20T18:48:52.257Z,949.4
2019-06-20T18:51:58.467Z,949.5
2019-06-20T18:55:04.600Z,949.6
2019-06-20T18:58:10.798Z,949.6
2019-06-20T19:01:16.993Z,949.6
2019-06-20T19:04:23.200Z,949.6
2019-06-20T19:07:29.440Z,949.6
2019-06-20T19:10:35.660Z,949.7
2019-06-20T19:13:44.693Z,949.7
2019-06-20T19:16:50.838Z,949.7
2019-06-20T19:19:57.270Z,949.7
2019-06-20T19:23:03.438Z,949.7
2019-06-20T19:26:09.770Z,949.8
2019-06-20T19:29:16.050Z,949.8
2019-06-20T19:32:22.405Z,949.8
2019-06-20T19:35:28.766Z,949.9
2019-06-20T19:38:34.990Z,950
2019-06-20T19:41:41.293Z,950
2019-06-20T19:44:47.457Z,950
2019-06-20T19:47:53.589Z,950
2019-06-20T19:50:59.786Z,950.2
2019-06-20T19:54:06.052Z,950.3
2019-06-20T19:57:12.278Z,950.3
2019-06-20T20:00:18.406Z,950.3
2019-06-20T20:03:24.749Z,950.2
2019-06-20T20:06:31.119Z,950.2
2019-06-20T20:09:37.283Z,950.2
2019-06-20T20:12:43.552Z,950.2
2019-06-20T20:15:49.714Z,950.2
2019-06-20T20:18:55.982Z,950.1
2019-06-20T20:22:02.248Z,950.2
2019-06-20T20:25:12.417Z,950.2
2019-06-20T20:28:18.536Z,950.2
2019-06-20T20:31:24.732Z,950.3
2019-06-20T20:34:30.868Z,950.3
2019-06-20T20:37:37.061Z,950.3
2019-06-20T20:40:43.195Z,950.3
2019-06-20T20:43:49.902Z,950.3
2019-06-20T20:46:56.084Z,950.2
2019-06-20T20:50:02.311Z,950.2
2019-06-20T20:53:08.496Z,950.2
2019-06-20T20:56:14.835Z,950.2
2019-06-20T20:59:21.030Z,950.2
2019-06-20T21:02:27.160Z,950.1
2019-06-20T21:05:33.358Z,950.1
2019-06-20T21:08:58.842Z,950.2
2019-06-20T21:12:05.051Z,950.1
2019-06-20T21:15:11.207Z,950.2
2019-06-20T21:18:17.353Z,950.3
2019-06-20T21:21:23.534Z,950.3
2019-06-20T21:24:29.954Z,950.2
2019-06-20T21:27:36.091Z,950.1
2019-06-20T21:30:42.287Z,950.1
2019-06-20T21:33:48.463Z,950.1
2019-06-20T21:36:54.670Z,950
2019-06-20T21:40:00.789Z,950
2019-06-20T21:43:07.093Z,950
2019-06-20T21:46:13.241Z,950
2019-06-20T21:49:19.348Z,949.9
2019-06-20T21:52:25.697Z,950
2019-06-20T21:55:31.852Z,949.9
2019-06-20T21:58:38.018Z,949.9
2019-06-20T22:01:44.156Z,949.9
2019-06-20T22:04:55.980Z,950
2019-06-20T22:08:05.095Z,949.9
2019-06-20T22:11:11.328Z,949.9
2019-06-20T22:14:17.607Z,950
2019-06-20T22:17:23.780Z,950
2019-06-20T22:20:30.125Z,950
2019-06-20T22:23:36.442Z,950
2019-06-20T22:26:42.635Z,950.1
2019-06-20T22:29:48.876Z,950.1
2019-06-20T22:32:55.023Z,950.1
2019-06-20T22:36:01.206Z,950.2
2019-06-20T22:39:07.473Z,950.3
2019-06-20T22:42:13.738Z,950.4
2019-06-20T22:45:19.904Z,950.4
2019-06-20T22:48:26.238Z,950.5
2019-06-20T22:51:32.345Z,950.5
2019-06-20T22:54:38.599Z,950.6
2019-06-20T22:57:44.791Z,950.4
2019-06-20T23:00:51.134Z,950.4
2019-06-20T23:03:57.402Z,950.4
2019-06-20T23:07:03.724Z,950.4
2019-06-20T23:10:12.249Z,950.3
2019-06-20T23:13:18.507Z,950.3
2019-06-20T23:16:24.716Z,950.3
2019-06-20T23:19:30.842Z,950.3
2019-06-20T23:22:37.044Z,950.1
2019-06-20T23:25:43.268Z,950.1
2019-06-20T23:28:49.450Z,950.1
2019-06-20T23:31:55.902Z,950.1
2019-06-20T23:35:02.120Z,950.1
2019-06-20T23:38:08.390Z,950.1
2019-06-20T23:41:14.544Z,950.2
2019-06-20T23:44:20.704Z,950.1
2019-06-20T23:47:26.970Z,950
2019-06-20T23:50:33.134Z,950
2019-06-20T23:53:39.404Z,950.1
2019-06-20T23:56:45.606Z,950.1
2019-06-20T23:59:51.833Z,950.1
